Time;durP1;ratioP1;P1;durP2;ratioP2;P2;SDS_P1;SDS_P2;PMS_P1;PMS_P2;Temp;Humidity;BMP_temperature;BMP_pressure;BME280_temperature;BME280_humidity;BME280_pressure;Samples;Min_cycle;Max_cycle;Signal;HPM_P1;HPM_P2
2023/12/26 00:02:06;;;;;;;3.50;2.57;;;;;;;14.11;91.19;149585.78;5092095;28;20643;-64
2023/12/26 00:04:33;;;;;;;3.63;3.00;;;;;;;13.98;92.47;149552.81;5091825;28;20195;-64
2023/12/26 00:07:01;;;;;;;2.90;2.70;;;;;;;13.99;92.45;149555.34;5091773;28;20213;-63
2023/12/26 00:09:29;;;;;;;2.70;2.50;;;;;;;13.88;92.50;149527.44;5091806;28;20188;-64
2023/12/26 00:11:56;;;;;;;3.33;3.00;;;;;;;13.87;92.92;149523.66;5092077;28;20248;-63
2023/12/26 00:14:23;;;;;;;3.00;2.63;;;;;;;13.87;93.54;149523.66;5092058;28;20180;-63
2023/12/26 00:16:50;;;;;;;4.50;2.90;;;;;;;13.77;94.28;149499.56;5091723;28;20180;-63
2023/12/26 00:19:17;;;;;;;5.23;2.90;;;;;;;13.77;94.20;149499.56;5092078;28;20616;-63
2023/12/26 00:21:44;;;;;;;3.27;2.90;;;;;;;13.63;95.09;149464.09;5091974;28;20187;-64
2023/12/26 00:24:12;;;;;;;4.43;2.73;;;;;;;13.79;94.81;149504.63;5091703;28;20192;-63
2023/12/26 00:26:42;;;;;;;3.33;2.60;;;;;;;13.80;94.86;149505.88;5093263;28;20269;-63
2023/12/26 00:29:09;;;;;;;3.00;2.73;;;;;;;13.81;95.09;149508.44;5095983;28;20555;-63
2023/12/26 00:31:41;;;;;;;3.50;2.30;;;;;;;13.68;95.49;149476.75;5095915;28;20184;-63
2023/12/26 00:34:08;;;;;;;3.40;3.10;;;;;;;13.82;94.67;149512.25;5095717;28;20176;-63
2023/12/26 00:36:35;;;;;;;3.97;2.90;;;;;;;13.80;95.94;149505.88;5095486;28;20186;-62
2023/12/26 00:39:02;;;;;;;5.43;2.77;;;;;;;13.78;95.54;149502.13;5095902;28;20180;-64
2023/12/26 00:41:31;;;;;;;3.50;3.00;;;;;;;13.71;95.66;149484.34;5095434;28;20184;-64
2023/12/26 00:43:58;;;;;;;3.63;3.00;;;;;;;13.70;95.91;149481.84;5095425;28;20176;-63
2023/12/26 00:46:25;;;;;;;3.10;2.90;;;;;;;13.56;96.31;149447.63;5095327;28;20212;-63
2023/12/26 00:48:52;;;;;;;2.90;2.70;;;;;;;13.65;97.19;149470.44;5095629;28;20604;-64
2023/12/26 00:51:19;;;;;;;3.20;3.00;;;;;;;13.43;98.31;149413.41;5095614;28;20188;-62
2023/12/26 00:53:46;;;;;;;3.23;2.70;;;;;;;13.54;98.38;149441.28;5095061;28;20264;-63
2023/12/26 00:56:14;;;;;;;6.87;3.13;;;;;;;13.41;99.04;149408.38;5095196;28;20184;-63
2023/12/26 00:58:43;;;;;;;3.40;3.10;;;;;;;13.40;100.00;149405.81;5095521;28;20280;-63
2023/12/26 01:01:11;;;;;;;2.80;2.53;;;;;;;13.40;100.00;149405.81;5095378;28;20635;-64
2023/12/26 01:03:38;;;;;;;3.80;3.00;;;;;;;13.39;99.24;149404.56;5095121;28;20188;-63
2023/12/26 01:06:05;;;;;;;3.80;3.40;;;;;;;13.26;98.86;149372.88;5094981;28;20563;-63
2023/12/26 01:08:32;;;;;;;3.07;2.87;;;;;;;13.35;97.49;149393.16;5095320;28;20576;-63
2023/12/26 01:10:59;;;;;;;2.83;2.63;;;;;;;13.48;96.78;149427.38;5095035;28;20212;-63
2023/12/26 01:13:30;;;;;;;7.60;3.20;;;;;;;13.51;96.68;149433.69;5094874;28;20184;-63
2023/12/26 01:15:58;;;;;;;4.83;3.20;;;;;;;13.57;96.18;149448.91;5094784;28;20180;-63
2023/12/26 01:18:27;;;;;;;7.03;2.73;;;;;;;13.59;96.63;149453.94;5094841;28;20245;-63
2023/12/26 01:20:54;;;;;;;3.20;2.90;;;;;;;13.58;95.17;149451.41;5094930;28;20703;-63
2023/12/26 01:23:22;;;;;;;4.60;2.83;;;;;;;13.62;94.02;149462.81;5094986;28;20608;-63
2023/12/26 01:25:49;;;;;;;2.77;2.60;;;;;;;13.70;92.56;149481.84;5094599;28;20310;-64
2023/12/26 01:28:16;;;;;;;3.10;2.80;;;;;;;13.80;91.60;149507.16;5094896;28;20188;-63
2023/12/26 01:30:43;;;;;;;3.83;3.23;;;;;;;13.70;90.79;149481.84;5094495;28;20188;-63
2023/12/26 01:33:12;;;;;;;2.60;2.40;;;;;;;13.83;90.91;149514.81;5094843;28;20188;-64
2023/12/26 01:35:39;;;;;;;2.90;2.20;;;;;;;13.73;91.11;149489.44;5094711;28;20604;-63
2023/12/26 01:38:06;;;;;;;7.03;2.70;;;;;;;13.67;91.75;149475.50;5093508;28;20176;-63
2023/12/26 01:40:33;;;;;;;7.03;3.27;;;;;;;13.81;91.20;149508.44;5094323;28;20574;-64
2023/12/26 01:43:00;;;;;;;3.47;2.27;;;;;;;13.90;90.35;149532.53;5094623;28;20610;-63
2023/12/26 01:45:27;;;;;;;3.63;2.57;;;;;;;13.86;88.50;149522.41;5094161;28;20211;-63
2023/12/26 01:47:59;;;;;;;2.67;2.43;;;;;;;14.06;87.74;149573.09;5094192;28;20188;-64
2023/12/26 01:50:28;;;;;;;2.47;2.37;;;;;;;14.00;88.13;149557.84;5094102;28;20192;-63
2023/12/26 01:52:56;;;;;;;2.77;2.20;;;;;;;13.98;87.29;149552.81;5094073;28;20232;-63
2023/12/26 01:55:24;;;;;;;3.00;2.60;;;;;;;13.78;86.67;149500.84;5094053;28;20184;-63
2023/12/26 01:57:54;;;;;;;5.90;2.20;;;;;;;14.03;86.60;149565.50;5094038;28;20214;-63
2023/12/26 02:00:21;;;;;;;5.23;2.50;;;;;;;14.07;85.77;149574.34;5094058;28;20191;-63
2023/12/26 02:02:52;;;;;;;2.83;2.27;;;;;;;14.10;84.64;149583.22;5093997;28;20184;-63
2023/12/26 02:05:19;;;;;;;5.33;2.20;;;;;;;14.19;83.50;149604.78;5094044;28;20275;-63
2023/12/26 02:07:48;;;;;;;2.67;2.47;;;;;;;14.24;82.68;149617.44;5093788;28;20188;-63
2023/12/26 02:10:15;;;;;;;2.30;2.20;;;;;;;14.35;81.61;149645.38;5093818;28;20242;-64
2023/12/26 02:12:43;;;;;;;2.30;2.10;;;;;;;14.40;80.96;149656.78;5093769;28;20180;-64
2023/12/26 02:15:13;;;;;;;2.47;2.27;;;;;;;14.35;81.48;149644.06;5093830;28;20191;-63
2023/12/26 02:17:41;;;;;;;2.53;2.33;;;;;;;14.38;80.90;149653.03;5094128;28;20204;-62
2023/12/26 02:20:09;;;;;;;4.30;2.50;;;;;;;14.36;80.36;149647.91;5093581;28;20184;-63
2023/12/26 02:22:38;;;;;;;3.73;2.70;;;;;;;14.23;80.43;149613.63;5093549;28;20184;-63
2023/12/26 02:25:09;;;;;;;6.37;2.30;;;;;;;14.27;80.39;149625.06;5093447;28;20189;-64
2023/12/26 02:27:37;;;;;;;3.20;2.90;;;;;;;14.36;81.37;149646.66;5093672;28;20310;-63
2023/12/26 02:30:07;;;;;;;3.43;2.00;;;;;;;14.30;81.77;149631.41;5093372;28;20264;-64
2023/12/26 02:32:37;;;;;;;2.30;2.20;;;;;;;14.26;82.33;149621.28;5093473;28;20211;-63
2023/12/26 02:35:06;;;;;;;2.40;2.23;;;;;;;14.10;84.75;149583.22;5093267;28;20246;-63
2023/12/26 02:37:33;;;;;;;2.80;2.30;;;;;;;14.08;83.87;149578.19;5093213;28;20196;-63
2023/12/26 02:40:02;;;;;;;5.30;2.37;;;;;;;14.08;83.97;149578.19;5093525;28;20188;-64
2023/12/26 02:42:31;;;;;;;2.63;2.50;;;;;;;13.83;84.66;149513.53;5093197;28;20184;-63
2023/12/26 02:44:58;;;;;;;5.90;2.43;;;;;;;13.99;85.00;149555.34;5093005;28;20184;-64
2023/12/26 02:47:26;;;;;;;2.50;2.37;;;;;;;13.85;84.71;149519.84;5093799;28;20203;-63
2023/12/26 02:49:53;;;;;;;3.20;3.00;;;;;;;13.95;85.43;149545.22;5093276;28;20529;-63
2023/12/26 02:52:20;;;;;;;2.60;2.40;;;;;;;13.91;85.46;149535.06;5092932;28;20231;-63
2023/12/26 02:54:47;;;;;;;4.70;3.17;;;;;;;13.98;85.20;149551.53;5092875;28;20192;-64
2023/12/26 02:57:14;;;;;;;2.40;2.30;;;;;;;13.94;85.81;149542.66;5093156;28;20180;-63
2023/12/26 02:59:43;;;;;;;5.63;2.57;;;;;;;13.83;88.12;149514.81;5092909;28;20184;-63
2023/12/26 03:02:10;;;;;;;2.70;2.50;;;;;;;13.75;91.16;149494.47;5092792;28;20188;-63
2023/12/26 03:04:37;;;;;;;2.77;2.57;;;;;;;13.66;91.20;149472.94;5092766;28;20188;-63
2023/12/26 03:07:05;;;;;;;5.83;2.70;;;;;;;13.56;93.08;149447.63;5092811;28;20208;-62
2023/12/26 03:09:33;;;;;;;3.53;2.90;;;;;;;13.47;94.30;149423.53;5092660;28;20192;-63
2023/12/26 03:12:00;;;;;;;4.90;2.40;;;;;;;13.32;94.62;149385.56;5092569;28;20184;-63
2023/12/26 03:14:27;;;;;;;3.97;2.60;;;;;;;13.13;95.89;149339.94;5092896;28;20531;-62
2023/12/26 03:16:55;;;;;;;4.83;3.13;;;;;;;13.00;96.51;149306.97;5092818;28;20715;-63
2023/12/26 03:19:22;;;;;;;2.70;2.50;;;;;;;13.04;97.62;149317.09;5093134;28;20321;-63
2023/12/26 03:21:49;;;;;;;4.73;2.63;;;;;;;13.06;98.39;149322.19;5092494;28;20183;-62
2023/12/26 03:24:16;;;;;;;3.87;3.57;;;;;;;12.96;99.74;149295.56;5092515;28;20188;-64
2023/12/26 03:26:43;;;;;;;3.17;3.03;;;;;;;12.85;100.00;149269.00;5092620;28;20204;-62
2023/12/26 03:29:10;;;;;;;4.37;3.83;;;;;;;12.83;100.00;149263.91;5092649;28;20592;-63
2023/12/26 03:31:43;;;;;;;4.90;3.50;;;;;;;12.79;100.00;149255.06;5092306;28;20196;-63
2023/12/26 03:34:12;;;;;;;6.00;4.23;;;;;;;12.65;100.00;149218.31;5092269;28;20188;-64
2023/12/26 03:36:44;;;;;;;3.63;3.33;;;;;;;12.61;100.00;149208.19;5092567;28;20566;-63
2023/12/26 03:39:11;;;;;;;5.70;3.63;;;;;;;12.62;100.00;149210.72;5092177;28;20188;-63
2023/12/26 03:41:38;;;;;;;5.63;3.23;;;;;;;12.48;100.00;149175.25;5092508;28;20696;-62
2023/12/26 03:44:06;;;;;;;3.80;3.30;;;;;;;12.59;100.00;149203.16;5092151;28;20196;-63
2023/12/26 03:46:33;;;;;;;3.87;3.47;;;;;;;12.50;100.00;149181.63;5092273;28;20216;-63
2023/12/26 03:49:00;;;;;;;8.40;3.67;;;;;;;12.40;100.00;149156.28;5092157;28;20214;-63
2023/12/26 03:51:29;;;;;;;3.90;3.03;;;;;;;12.40;100.00;149156.28;5091962;28;20184;-63
2023/12/26 03:53:56;;;;;;;6.13;3.27;;;;;;;12.36;100.00;149147.44;5091825;28;20652;-63
2023/12/26 03:56:23;;;;;;;3.97;3.47;;;;;;;12.20;100.00;149106.94;5091951;28;20272;-64
2023/12/26 03:58:50;;;;;;;4.50;3.30;;;;;;;12.00;100.00;149055.06;5091973;28;20243;-62
2023/12/26 04:01:17;;;;;;;5.27;3.40;;;;;;;11.86;100.00;149022.16;5091958;28;20200;-63
2023/12/26 04:03:44;;;;;;;3.87;2.87;;;;;;;11.93;100.00;149038.56;5092157;28;20241;-64
2023/12/26 04:06:11;;;;;;;2.93;2.73;;;;;;;11.97;100.00;149048.69;5092171;28;20739;-63
2023/12/26 04:08:40;;;;;;;3.13;2.67;;;;;;;11.92;100.00;149034.81;5091818;28;20180;-64
2023/12/26 04:11:07;;;;;;;2.70;2.50;;;;;;;12.02;100.00;149061.34;5091793;28;20188;-62
2023/12/26 04:13:34;;;;;;;2.87;2.40;;;;;;;12.03;100.00;149062.63;5092015;28;20558;-64
2023/12/26 04:16:01;;;;;;;4.23;2.93;;;;;;;11.89;100.00;149029.72;5091770;28;20184;-63
2023/12/26 04:18:28;;;;;;;10.30;3.70;;;;;;;11.98;100.00;149051.25;5091603;28;20187;-62
2023/12/26 04:20:55;;;;;;;2.80;2.60;;;;;;;11.98;100.00;149049.97;5091680;28;20192;-63
2023/12/26 04:23:23;;;;;;;8.93;2.50;;;;;;;11.95;100.00;149043.66;5091659;28;20188;-63
2023/12/26 04:25:51;;;;;;;3.57;3.27;;;;;;;11.99;100.00;149053.78;5091962;28;20191;-62
2023/12/26 04:28:18;;;;;;;5.47;3.70;;;;;;;11.96;100.00;149046.19;5091677;28;20184;-63
2023/12/26 04:30:47;;;;;;;5.20;3.63;;;;;;;11.85;100.00;149018.34;5091957;28;20179;-63
2023/12/26 04:33:14;;;;;;;5.17;3.00;;;;;;;11.56;100.00;148944.91;5091941;28;20245;-64
2023/12/26 04:35:41;;;;;;;3.80;3.47;;;;;;;11.49;100.00;148928.47;5091915;28;20626;-62
2023/12/26 04:38:09;;;;;;;4.73;3.60;;;;;;;11.28;100.00;148876.63;5091502;28;20180;-63
2023/12/26 04:40:36;;;;;;;6.03;3.27;;;;;;;11.33;100.00;148889.25;5091499;28;20177;-63
2023/12/26 04:43:08;;;;;;;4.73;3.37;;;;;;;11.25;100.00;148867.75;5091811;28;20680;-63
2023/12/26 04:45:38;;;;;;;4.57;2.93;;;;;;;11.18;100.00;148851.31;5091580;28;20540;-63
2023/12/26 04:48:07;;;;;;;7.70;3.50;;;;;;;11.12;100.00;148836.13;5091391;28;20216;-63
2023/12/26 04:50:34;;;;;;;3.13;2.80;;;;;;;11.02;100.00;148809.59;5091478;28;20192;-64
2023/12/26 04:53:04;;;;;;;3.53;3.23;;;;;;;11.04;100.00;148815.91;5091726;28;20613;-63
2023/12/26 04:55:31;;;;;;;3.93;3.33;;;;;;;11.15;100.00;148843.75;5091433;28;20188;-64
2023/12/26 04:57:58;;;;;;;7.87;2.77;;;;;;;11.25;100.00;148869.00;5091439;28;20238;-63
2023/12/26 05:00:27;;;;;;;4.20;3.20;;;;;;;11.29;100.00;148879.13;5091349;28;20211;-64
2023/12/26 05:02:53;;;;;;;4.63;3.13;;;;;;;11.31;100.00;148884.22;5091644;28;20249;-62
2023/12/26 05:05:20;;;;;;;7.87;3.17;;;;;;;11.33;100.00;148889.25;5091441;28;20184;-63
2023/12/26 05:07:47;;;;;;;5.53;3.40;;;;;;;11.33;100.00;148889.25;5091518;28;20200;-63
2023/12/26 05:10:14;;;;;;;5.90;3.07;;;;;;;11.31;100.00;148884.22;5091493;28;20238;-63
2023/12/26 05:12:41;;;;;;;3.10;2.90;;;;;;;11.34;100.00;148890.50;5091242;28;20241;-63
2023/12/26 05:15:09;;;;;;;5.00;3.60;;;;;;;11.35;100.00;148893.06;5094880;28;20191;-63
2023/12/26 05:17:38;;;;;;;7.83;3.27;;;;;;;11.29;100.00;148877.84;5094840;28;20181;-63
2023/12/26 05:20:05;;;;;;;5.43;3.53;;;;;;;11.18;100.00;148850.03;5095129;28;20192;-64
2023/12/26 05:22:33;;;;;;;7.87;4.23;;;;;;;11.30;100.00;148880.41;5094957;28;20238;-64
2023/12/26 05:25:00;;;;;;;4.70;3.63;;;;;;;11.33;100.00;148888.03;5095003;28;20287;-63
2023/12/26 05:27:27;;;;;;;5.83;3.30;;;;;;;11.29;100.00;148879.13;5094510;28;20208;-64
2023/12/26 05:29:54;;;;;;;4.33;4.00;;;;;;;11.28;100.00;148875.38;5094460;28;20196;-63
2023/12/26 05:32:21;;;;;;;3.87;3.47;;;;;;;11.29;100.00;148879.13;5094777;28;20200;-63
2023/12/26 05:34:49;;;;;;;5.57;5.03;;;;;;;11.41;100.00;148908.25;5094512;28;20261;-63
2023/12/26 05:37:16;;;;;;;7.27;4.90;;;;;;;11.15;100.00;148842.47;5094392;28;20176;-63
2023/12/26 05:39:44;;;;;;;5.33;4.90;;;;;;;11.22;100.00;148860.16;5094702;28;20616;-64
2023/12/26 05:42:11;;;;;;;5.63;4.97;;;;;;;11.14;100.00;148841.19;5094702;28;20593;-63
2023/12/26 05:44:40;;;;;;;5.67;5.03;;;;;;;11.17;100.00;148847.50;5094383;28;20184;-63
2023/12/26 05:47:07;;;;;;;5.57;4.33;;;;;;;11.11;100.00;148833.63;5094203;28;20215;-63
2023/12/26 05:49:34;;;;;;;5.53;4.63;;;;;;;10.99;100.00;148803.25;5094662;28;20188;-64
2023/12/26 05:54:47;;;;;;;5.40;4.50;;;;;;;11.03;100.00;148813.41;5094794;28;20179;-64
2023/12/26 05:57:14;;;;;;;6.77;5.10;;;;;;;11.17;100.00;148848.78;5094618;28;20184;-63
2023/12/26 05:59:41;;;;;;;8.10;6.27;;;;;;;11.16;100.00;148846.25;5094520;28;20188;-63
2023/12/26 06:02:08;;;;;;;12.00;8.13;;;;;;;11.25;100.00;148867.75;5094053;28;20234;-63
2023/12/26 06:04:35;;;;;;;6.13;5.53;;;;;;;11.35;100.00;148894.31;5094297;28;20184;-64
2023/12/26 06:07:04;;;;;;;5.47;5.03;;;;;;;11.55;100.00;148942.38;5093921;28;20212;-64
2023/12/26 06:09:31;;;;;;;14.13;6.93;;;;;;;11.85;100.00;149019.59;5093905;28;20210;-63
2023/12/26 06:11:59;;;;;;;6.90;6.13;;;;;;;12.12;100.00;149086.69;5094124;28;20192;-63
2023/12/26 06:14:26;;;;;;;10.40;5.47;;;;;;;12.50;100.00;149181.63;5094102;28;20180;-63
2023/12/26 06:16:53;;;;;;;9.93;4.80;;;;;;;13.13;100.00;149338.69;5093727;28;20188;-64
2023/12/26 06:19:20;;;;;;;6.80;4.27;;;;;;;13.51;98.11;149433.69;5094035;28;20192;-63
2023/12/26 06:21:47;;;;;;;4.83;4.43;;;;;;;14.20;92.95;149607.31;5093857;28;20184;-63
2023/12/26 06:24:16;;;;;;;6.43;3.90;;;;;;;14.66;87.37;149721.47;5093155;28;20199;-64
2023/12/26 06:26:43;;;;;;;4.60;4.20;;;;;;;15.20;81.47;149857.16;5093799;28;20241;-65
2023/12/26 06:29:10;;;;;;;5.53;3.77;;;;;;;15.73;75.26;149990.47;5093539;28;20188;-64
2023/12/26 06:31:37;;;;;;;5.10;3.93;;;;;;;16.00;71.98;150058.97;5093403;28;20188;-64
2023/12/26 06:34:04;;;;;;;13.60;4.87;;;;;;;16.73;71.60;150243.16;5093747;28;20238;-64
2023/12/26 06:36:32;;;;;;;7.53;4.60;;;;;;;17.22;66.33;150366.41;5093342;28;20301;-64
2023/12/26 06:39:00;;;;;;;7.80;5.00;;;;;;;17.88;63.12;150531.63;5093298;28;20287;-64
2023/12/26 06:41:29;;;;;;;8.90;4.53;;;;;;;18.49;59.63;150684.22;5093272;28;20192;-65
2023/12/26 06:43:57;;;;;;;4.93;4.53;;;;;;;18.76;56.60;150751.63;5093403;28;20677;-64
2023/12/26 06:46:24;;;;;;;5.83;5.40;;;;;;;18.59;56.50;150710.94;5093186;28;20188;-65
2023/12/26 06:48:52;;;;;;;7.20;6.40;;;;;;;18.85;55.61;150775.81;5093099;28;20208;-65
2023/12/26 06:51:19;;;;;;;7.45;5.95;;;;;;;19.15;55.72;150850.88;5093398;28;20241;-65
2023/12/26 06:53:47;;;;;;;6.10;5.07;;;;;;;19.42;57.25;150918.31;5092970;28;20602;-64
2023/12/26 06:56:14;;;;;;;5.13;3.80;;;;;;;19.97;55.47;151057.09;5093163;28;20191;-65
2023/12/26 06:58:42;;;;;;;4.30;3.85;;;;;;;19.90;54.40;151039.31;5093199;28;20184;-65
2023/12/26 07:01:10;;;;;;;3.90;3.47;;;;;;;19.55;54.60;150951.47;5093223;28;20634;-65
2023/12/26 07:03:37;;;;;;;4.47;4.18;;;;;;;19.90;54.31;151040.53;5093305;28;20531;-64
2023/12/26 07:06:04;;;;;;;5.53;4.07;;;;;;;20.23;53.00;151122.03;5092919;28;20253;-64
2023/12/26 07:08:31;;;;;;;3.72;3.42;;;;;;;20.27;51.38;151132.22;5093090;28;20208;-64
2023/12/26 07:10:58;;;;;;;3.15;2.80;;;;;;;20.26;50.40;151129.66;5092980;28;20191;-65
2023/12/26 07:13:25;;;;;;;3.72;3.45;;;;;;;20.33;50.84;151148.81;5092671;28;20245;-64
2023/12/26 07:15:54;;;;;;;4.75;3.08;;;;;;;21.24;48.68;151376.88;5092572;28;20245;-65
2023/12/26 07:18:21;;;;;;;7.10;3.40;;;;;;;21.35;48.11;151406.16;5092641;28;20210;-64
2023/12/26 07:20:48;;;;;;;4.38;3.42;;;;;;;22.26;46.26;151635.69;5092470;28;20187;-65
2023/12/26 07:23:15;;;;;;;3.85;3.55;;;;;;;22.55;45.58;151707.09;5092403;28;20195;-64
2023/12/26 07:25:42;;;;;;;4.03;3.63;;;;;;;22.68;45.53;151740.25;5092681;28;20183;-64
2023/12/26 07:28:10;;;;;;;4.55;3.85;;;;;;;23.37;44.50;151915.09;5092424;28;20200;-64
2023/12/26 07:30:40;;;;;;;7.05;4.35;;;;;;;23.50;44.23;151947.03;5092342;28;20237;-65
2023/12/26 07:33:08;;;;;;;4.97;4.63;;;;;;;24.17;43.24;152115.56;5092320;28;20665;-65
2023/12/26 07:35:37;;;;;;;8.70;5.85;;;;;;;24.16;42.76;152114.28;5091733;28;20192;-65
2023/12/26 07:38:05;;;;;;;9.05;5.70;;;;;;;24.76;42.53;152266.25;5092275;28;20238;-64
2023/12/26 07:40:33;;;;;;;5.90;5.47;;;;;;;25.36;41.09;152417.03;5092227;28;20180;-64
2023/12/26 07:43:00;;;;;;;7.28;5.63;;;;;;;25.57;40.38;152469.47;5092441;28;20668;-64
2023/12/26 07:45:27;;;;;;;8.88;6.28;;;;;;;25.08;41.31;152346.75;5092234;28;20638;-65
2023/12/26 07:47:54;;;;;;;6.65;5.97;;;;;;;25.17;41.56;152368.47;5092306;28;20674;-65
2023/12/26 07:50:22;;;;;;;6.38;5.95;;;;;;;25.39;41.00;152424.69;5092024;28;20180;-65
2023/12/26 07:52:49;;;;;;;10.23;6.10;;;;;;;26.63;39.82;152739.25;5092172;28;20236;-66
2023/12/26 07:55:16;;;;;;;9.10;6.70;;;;;;;27.91;37.73;153061.75;5092117;28;20226;-65
2023/12/26 07:57:44;;;;;;;7.03;6.35;;;;;;;28.91;36.37;153316.59;5092335;28;20589;-65
2023/12/26 08:00:12;;;;;;;7.10;6.55;;;;;;;29.34;34.89;153424.22;5091968;28;20180;-66
2023/12/26 08:02:40;;;;;;;6.10;5.63;;;;;;;29.14;35.29;153372.94;5091872;28;20192;-65
2023/12/26 08:05:07;;;;;;;7.25;6.07;;;;;;;28.75;35.70;153274.34;5091915;28;20195;-65
2023/12/26 08:07:35;;;;;;;6.55;5.80;;;;;;;28.52;35.89;153216.66;5091869;28;20261;-65
2023/12/26 08:10:03;;;;;;;6.93;6.32;;;;;;;27.91;36.81;153061.75;5091770;28;20560;-65
2023/12/26 08:12:30;;;;;;;7.25;6.50;;;;;;;27.53;37.32;152967.06;5092059;28;20255;-65
2023/12/26 08:14:57;;;;;;;15.30;7.00;;;;;;;27.75;37.06;153020.81;5091830;28;20184;-65
2023/12/26 08:17:24;;;;;;;10.23;6.00;;;;;;;28.80;36.16;153288.44;5092033;28;20179;-65
2023/12/26 08:19:51;;;;;;;6.45;5.85;;;;;;;29.40;34.80;153440.91;5091939;28;20706;-65
2023/12/26 08:22:18;;;;;;;11.23;6.03;;;;;;;28.81;35.31;153291.00;5091643;28;20188;-65
2023/12/26 08:24:47;;;;;;;6.43;5.45;;;;;;;27.85;36.11;153046.38;5091592;28;20192;-65
2023/12/26 08:27:14;;;;;;;5.10;4.68;;;;;;;27.90;35.57;153060.47;5091525;28;20179;-65
2023/12/26 08:29:41;;;;;;;6.10;5.00;;;;;;;27.41;36.19;152936.31;5091598;28;20180;-66
2023/12/26 08:32:08;;;;;;;6.13;5.60;;;;;;;27.40;36.15;152933.75;5091917;28;20242;-64
2023/12/26 08:34:35;;;;;;;5.80;5.50;;;;;;;27.57;36.29;152977.28;5091616;28;20195;-65
2023/12/26 08:37:03;;;;;;;6.80;6.20;;;;;;;28.51;35.41;153215.41;5091564;28;20188;-64
2023/12/26 08:39:30;;;;;;;6.05;5.47;;;;;;;28.41;35.31;153188.50;5091880;28;20184;-66
2023/12/26 08:41:59;;;;;;;5.55;5.05;;;;;;;28.93;34.93;153320.44;5091876;28;20729;-65
2023/12/26 08:44:26;;;;;;;6.25;5.68;;;;;;;29.77;33.41;153533.13;5091762;28;20634;-66
2023/12/26 08:46:53;;;;;;;6.22;5.63;;;;;;;29.34;33.83;153425.50;5092143;28;20184;-65
2023/12/26 08:49:20;;;;;;;5.82;5.43;;;;;;;28.91;35.07;153315.31;5095325;28;20234;-66
2023/12/26 08:51:47;;;;;;;5.80;5.22;;;;;;;28.39;34.72;153184.66;5095291;28;20191;-65
2023/12/26 08:54:14;;;;;;;6.75;5.60;;;;;;;28.33;34.74;153169.31;5095239;28;20288;-66
2023/12/26 08:56:42;;;;;;;5.43;5.13;;;;;;;30.09;33.25;153613.88;5095637;28;20207;-65
2023/12/26 08:59:10;;;;;;;6.15;5.70;;;;;;;30.53;32.61;153725.44;5095154;28;20180;-65
2023/12/26 09:01:37;;;;;;;5.57;5.15;;;;;;;30.62;32.13;153748.53;5095429;28;20184;-65
2023/12/26 09:04:05;;;;;;;5.15;4.85;;;;;;;30.29;32.25;153666.47;5095363;28;20306;-65
2023/12/26 09:06:32;;;;;;;4.88;4.47;;;;;;;30.52;32.08;153722.88;5095439;28;20271;-65
2023/12/26 09:08:59;;;;;;;4.57;4.28;;;;;;;31.36;30.89;153937.03;5095214;28;20585;-65
2023/12/26 09:11:28;;;;;;;4.07;3.78;;;;;;;31.77;29.85;154041.00;5095000;28;20230;-65
2023/12/26 09:13:55;;;;;;;4.43;3.90;;;;;;;31.19;30.94;153894.72;5095020;28;20195;-65
2023/12/26 09:16:24;;;;;;;4.57;4.28;;;;;;;31.90;30.47;154074.38;5095022;28;20184;-65
2023/12/26 09:18:51;;;;;;;4.55;4.15;;;;;;;32.80;29.41;154301.59;5094876;28;20225;-65
2023/12/26 09:21:20;;;;;;;3.90;3.50;;;;;;;33.43;28.78;154463.41;5095223;28;20634;-64
2023/12/26 09:23:47;;;;;;;4.25;3.92;;;;;;;33.70;28.85;154531.47;5094939;28;20227;-65
2023/12/26 09:26:17;;;;;;;3.80;3.60;;;;;;;33.33;28.45;154436.41;5095009;28;20180;-65
2023/12/26 09:28:44;;;;;;;4.00;3.70;;;;;;;33.00;29.28;154354.22;5094624;28;20302;-66
2023/12/26 09:31:11;;;;;;;4.10;3.90;;;;;;;34.42;27.88;154715.22;5095004;28;20187;-65
2023/12/26 09:33:40;;;;;;;3.47;3.25;;;;;;;33.94;27.61;154591.88;5094901;28;20631;-65
2023/12/26 09:36:07;;;;;;;4.57;2.97;;;;;;;34.30;27.59;154684.38;5094722;28;20628;-65
2023/12/26 09:38:34;;;;;;;3.38;3.08;;;;;;;35.42;26.76;154968.50;5094801;28;20634;-65
2023/12/26 09:41:01;;;;;;;3.72;3.53;;;;;;;34.56;26.95;154748.63;5094392;28;20188;-64
2023/12/26 09:43:29;;;;;;;4.65;3.47;;;;;;;34.14;27.38;154641.94;5094261;28;20209;-65
2023/12/26 09:45:56;;;;;;;4.60;4.00;;;;;;;33.90;27.27;154582.88;5094579;28;20285;-64
2023/12/26 09:48:24;;;;;;;3.60;3.40;;;;;;;33.30;28.12;154430.00;5094420;28;20571;-65
2023/12/26 09:50:54;;;;;;;6.60;3.00;;;;;;;33.23;27.87;154410.78;5094174;28;20539;-66
2023/12/26 09:53:24;;;;;;;3.10;2.90;;;;;;;33.80;27.52;154557.19;5094149;28;20232;-66
2023/12/26 09:55:51;;;;;;;3.42;3.22;;;;;;;33.37;27.81;154447.97;5094112;28;20184;-65
2023/12/26 09:58:19;;;;;;;3.20;3.00;;;;;;;33.46;27.96;154469.81;5093902;28;20180;-65
2023/12/26 10:00:49;;;;;;;3.40;3.28;;;;;;;33.39;27.72;154451.84;5093956;28;20637;-65
2023/12/26 10:03:17;;;;;;;3.33;3.13;;;;;;;33.28;27.81;154423.56;5093941;28;20627;-65
2023/12/26 10:05:44;;;;;;;2.90;2.80;;;;;;;34.02;27.41;154611.13;5094182;28;20242;-66
2023/12/26 10:08:13;;;;;;;2.63;2.53;;;;;;;32.22;27.50;154153.94;5093771;28;20228;-65
2023/12/26 10:10:40;;;;;;;2.50;2.40;;;;;;;31.55;29.02;153984.56;5094115;28;20192;-64
2023/12/26 10:13:07;;;;;;;2.65;2.55;;;;;;;31.56;29.41;153987.13;5093699;28;20180;-65
2023/12/26 10:15:34;;;;;;;2.97;2.75;;;;;;;31.44;29.27;153956.31;5094120;28;20188;-65
2023/12/26 10:18:03;;;;;;;2.72;2.50;;;;;;;31.51;28.63;153975.53;5094022;28;20234;-65
2023/12/26 10:20:34;;;;;;;3.10;2.60;;;;;;;30.89;29.21;153817.78;5093754;28;20216;-65
2023/12/26 10:23:03;;;;;;;3.00;2.80;;;;;;;31.20;29.54;153897.28;5093930;28;20267;-64
2023/12/26 10:25:32;;;;;;;3.10;2.90;;;;;;;30.52;30.00;153724.16;5093551;28;20188;-66
2023/12/26 10:27:59;;;;;;;4.88;3.20;;;;;;;30.66;30.44;153758.78;5093668;28;20192;-64
2023/12/26 10:30:27;;;;;;;3.28;3.00;;;;;;;31.68;29.37;154017.91;5093539;28;20203;-64
2023/12/26 10:33:00;;;;;;;3.17;2.97;;;;;;;32.37;28.71;154193.75;5093412;28;20324;-64
2023/12/26 10:35:28;;;;;;;3.53;3.30;;;;;;;33.02;28.07;154359.34;5093434;28;20305;-65
2023/12/26 10:37:57;;;;;;;3.75;2.58;;;;;;;32.03;28.51;154106.44;5093579;28;20184;-65
2023/12/26 10:40:24;;;;;;;3.25;2.47;;;;;;;32.08;28.77;154120.56;5093283;28;20245;-65
2023/12/26 10:42:53;;;;;;;2.75;2.60;;;;;;;31.86;28.93;154062.81;5093213;28;20222;-65
2023/12/26 10:45:20;;;;;;;2.60;2.28;;;;;;;33.02;28.54;154359.34;5093434;28;20719;-65
2023/12/26 10:47:49;;;;;;;2.45;2.30;;;;;;;34.52;27.26;154739.63;5093093;28;20188;-65
2023/12/26 10:50:18;;;;;;;2.60;2.35;;;;;;;34.11;27.23;154634.25;5093094;28;20566;-64
2023/12/26 10:53:15;;;;;;;2.63;2.53;;;;;;;33.43;28.09;154462.13;5092914;28;20331;-65
2023/12/26 10:55:44;;;;;;;2.53;2.33;;;;;;;33.63;28.09;154512.19;5093248;28;20191;-64
2023/12/26 10:58:20;;;;;;;2.72;2.53;;;;;;;33.55;28.34;154492.94;5093101;28;20272;-64
2023/12/26 11:00:51;;;;;;;2.58;2.42;;;;;;;33.86;27.83;154572.56;5092838;28;20200;-65
2023/12/26 13:51:42;;;;;;;2.25;2.05;;;;;;;20.45;71.00;151179.38;5094323;28;20538;-64
2023/12/26 13:54:46;;;;;;;2.67;2.22;;;;;;;20.23;72.37;151123.31;5094029;28;20693;-63
2023/12/26 13:57:50;;;;;;;3.53;2.42;;;;;;;20.00;74.66;151064.72;5094426;28;20206;-64
2023/12/26 14:00:54;;;;;;;2.92;2.67;;;;;;;20.00;74.79;151064.72;5094197;28;20187;-64
2023/12/26 14:03:57;;;;;;;2.38;2.28;;;;;;;19.95;75.42;151052.00;5094031;28;20187;-64
2023/12/26 14:07:02;;;;;;;2.90;2.60;;;;;;;19.75;76.68;151001.09;5094026;28;20184;-64
2023/12/26 14:10:07;;;;;;;2.90;2.58;;;;;;;19.59;78.74;150962.94;5094110;28;20210;-64
2023/12/26 14:13:12;;;;;;;3.63;2.37;;;;;;;19.38;81.76;150908.16;5093823;28;20194;-65
2023/12/26 14:16:18;;;;;;;2.70;2.50;;;;;;;19.27;83.19;150880.13;5093888;28;20187;-64
2023/12/26 14:19:22;;;;;;;2.77;2.57;;;;;;;19.15;84.05;150852.16;5093827;28;20180;-64
2023/12/26 14:22:26;;;;;;;2.58;2.38;;;;;;;19.07;84.90;150830.53;5093956;28;20204;-64